sensor_id;sensor_type;location;lat;lon;timestamp;temperature;humidity
44723;DHT22;30451;48.638;10.624;2022-07-29T00:01:47;27.60;41.20
44723;DHT22;30451;48.638;10.624;2022-07-29T00:04:13;27.60;41.30
44723;DHT22;30451;48.638;10.624;2022-07-29T00:06:39;27.60;41.30
44723;DHT22;30451;48.638;10.624;2022-07-29T00:09:05;27.50;41.30
44723;DHT22;30451;48.638;10.624;2022-07-29T00:11:30;27.50;41.30
44723;DHT22;30451;48.638;10.624;2022-07-29T00:13:56;27.50;41.60
44723;DHT22;30451;48.638;10.624;2022-07-29T00:16:21;27.50;41.50
44723;DHT22;30451;48.638;10.624;2022-07-29T00:18:47;27.40;41.40
44723;DHT22;30451;48.638;10.624;2022-07-29T00:21:12;27.50;41.60
44723;DHT22;30451;48.638;10.624;2022-07-29T00:23:38;27.40;41.50
44723;DHT22;30451;48.638;10.624;2022-07-29T00:26:03;27.40;41.60
44723;DHT22;30451;48.638;10.624;2022-07-29T00:28:29;27.40;41.60
44723;DHT22;30451;48.638;10.624;2022-07-29T00:30:55;27.40;41.70
44723;DHT22;30451;48.638;10.624;2022-07-29T00:33:20;27.30;41.70
44723;DHT22;30451;48.638;10.624;2022-07-29T00:35:47;27.40;41.90
44723;DHT22;30451;48.638;10.624;2022-07-29T00:38:13;27.40;41.80
44723;DHT22;30451;48.638;10.624;2022-07-29T00:40:39;27.30;41.80
44723;DHT22;30451;48.638;10.624;2022-07-29T00:43:05;27.30;41.90
44723;DHT22;30451;48.638;10.624;2022-07-29T00:45:30;27.30;41.90
44723;DHT22;30451;48.638;10.624;2022-07-29T00:47:56;27.30;42.00
44723;DHT22;30451;48.638;10.624;2022-07-29T00:50:22;27.30;42.00
44723;DHT22;30451;48.638;10.624;2022-07-29T00:52:47;27.30;42.10
44723;DHT22;30451;48.638;10.624;2022-07-29T00:55:14;27.30;42.10
44723;DHT22;30451;48.638;10.624;2022-07-29T00:57:40;27.30;42.10
44723;DHT22;30451;48.638;10.624;2022-07-29T01:00:07;27.30;42.20
44723;DHT22;30451;48.638;10.624;2022-07-29T01:02:33;27.20;42.20
44723;DHT22;30451;48.638;10.624;2022-07-29T01:04:59;27.20;42.20
44723;DHT22;30451;48.638;10.624;2022-07-29T01:07:25;27.20;42.30
44723;DHT22;30451;48.638;10.624;2022-07-29T01:09:53;27.20;42.30
44723;DHT22;30451;48.638;10.624;2022-07-29T01:12:23;27.20;42.40
44723;DHT22;30451;48.638;10.624;2022-07-29T01:14:49;27.20;42.40
44723;DHT22;30451;48.638;10.624;2022-07-29T01:27:51;27.10;42.50
44723;DHT22;30451;48.638;10.624;2022-07-29T01:30:29;27.10;42.60
44723;DHT22;30451;48.638;10.624;2022-07-29T01:33:00;27.10;42.60
44723;DHT22;30451;48.638;10.624;2022-07-29T01:35:36;27.10;42.60
44723;DHT22;30451;48.638;10.624;2022-07-29T01:38:08;27.10;42.70
44723;DHT22;30451;48.638;10.624;2022-07-29T01:40:43;27.10;42.60
44723;DHT22;30451;48.638;10.624;2022-07-29T01:43:10;27.10;42.70
44723;DHT22;30451;48.638;10.624;2022-07-29T01:45:37;27.10;42.70
44723;DHT22;30451;48.638;10.624;2022-07-29T01:48:11;27.10;42.70
44723;DHT22;30451;48.638;10.624;2022-07-29T01:50:46;27.10;42.80
44723;DHT22;30451;48.638;10.624;2022-07-29T01:53:12;27.10;42.80
44723;DHT22;30451;48.638;10.624;2022-07-29T01:55:40;27.10;42.80
44723;DHT22;30451;48.638;10.624;2022-07-29T01:58:07;27.10;42.80
44723;DHT22;30451;48.638;10.624;2022-07-29T02:00:34;27.00;43.00
44723;DHT22;30451;48.638;10.624;2022-07-29T02:03:03;27.00;42.80
44723;DHT22;30451;48.638;10.624;2022-07-29T02:05:30;27.00;42.90
44723;DHT22;30451;48.638;10.624;2022-07-29T02:07:57;27.00;42.80
44723;DHT22;30451;48.638;10.624;2022-07-29T02:10:27;27.00;42.90
44723;DHT22;30451;48.638;10.624;2022-07-29T02:12:54;27.00;43.00
44723;DHT22;30451;48.638;10.624;2022-07-29T02:15:20;27.00;43.00
44723;DHT22;30451;48.638;10.624;2022-07-29T02:17:49;27.00;43.00
44723;DHT22;30451;48.638;10.624;2022-07-29T02:20:15;27.00;43.00
44723;DHT22;30451;48.638;10.624;2022-07-29T02:22:41;27.00;43.00
44723;DHT22;30451;48.638;10.624;2022-07-29T02:25:08;27.00;43.00
44723;DHT22;30451;48.638;10.624;2022-07-29T02:27:35;27.00;43.10
44723;DHT22;30451;48.638;10.624;2022-07-29T02:30:03;27.00;43.10
44723;DHT22;30451;48.638;10.624;2022-07-29T02:32:29;27.00;43.10
44723;DHT22;30451;48.638;10.624;2022-07-29T02:34:55;27.00;43.10
44723;DHT22;30451;48.638;10.624;2022-07-29T02:37:21;27.00;43.10
44723;DHT22;30451;48.638;10.624;2022-07-29T02:39:48;27.00;43.20
44723;DHT22;30451;48.638;10.624;2022-07-29T02:42:17;27.00;43.30
44723;DHT22;30451;48.638;10.624;2022-07-29T02:44:43;26.90;43.20
44723;DHT22;30451;48.638;10.624;2022-07-29T02:47:20;26.90;43.20
44723;DHT22;30451;48.638;10.624;2022-07-29T02:49:53;26.90;43.20
44723;DHT22;30451;48.638;10.624;2022-07-29T02:52:24;26.90;43.20
44723;DHT22;30451;48.638;10.624;2022-07-29T02:54:58;26.90;43.30
44723;DHT22;30451;48.638;10.624;2022-07-29T02:57:32;26.90;43.30
44723;DHT22;30451;48.638;10.624;2022-07-29T03:00:00;26.90;43.30
44723;DHT22;30451;48.638;10.624;2022-07-29T03:02:29;26.90;43.40
44723;DHT22;30451;48.638;10.624;2022-07-29T03:04:58;26.90;43.40
44723;DHT22;30451;48.638;10.624;2022-07-29T03:07:24;26.90;43.40
44723;DHT22;30451;48.638;10.624;2022-07-29T03:09:50;26.80;43.40
44723;DHT22;30451;48.638;10.624;2022-07-29T03:12:16;26.80;43.50
44723;DHT22;30451;48.638;10.624;2022-07-29T03:14:42;26.80;43.50
44723;DHT22;30451;48.638;10.624;2022-07-29T03:17:11;26.80;43.50
44723;DHT22;30451;48.638;10.624;2022-07-29T03:19:38;26.80;43.50
44723;DHT22;30451;48.638;10.624;2022-07-29T03:22:04;26.80;43.50
44723;DHT22;30451;48.638;10.624;2022-07-29T03:24:31;26.80;43.60
44723;DHT22;30451;48.638;10.624;2022-07-29T03:26:57;26.80;43.50
44723;DHT22;30451;48.638;10.624;2022-07-29T03:29:23;26.80;43.50
44723;DHT22;30451;48.638;10.624;2022-07-29T03:31:49;26.80;43.60
44723;DHT22;30451;48.638;10.624;2022-07-29T03:34:14;26.80;43.60
44723;DHT22;30451;48.638;10.624;2022-07-29T03:36:40;26.80;43.60
44723;DHT22;30451;48.638;10.624;2022-07-29T03:39:05;26.80;43.70
44723;DHT22;30451;48.638;10.624;2022-07-29T03:41:34;26.80;43.70
44723;DHT22;30451;48.638;10.624;2022-07-29T03:44:01;26.80;46.00
44723;DHT22;30451;48.638;10.624;2022-07-29T03:46:27;26.80;47.10
44723;DHT22;30451;48.638;10.624;2022-07-29T03:48:55;26.80;47.90
44723;DHT22;30451;48.638;10.624;2022-07-29T03:51:23;26.80;49.20
44723;DHT22;30451;48.638;10.624;2022-07-29T03:53:49;26.70;49.20
44723;DHT22;30451;48.638;10.624;2022-07-29T03:56:15;26.70;49.40
44723;DHT22;30451;48.638;10.624;2022-07-29T03:58:41;26.70;50.70
44723;DHT22;30451;48.638;10.624;2022-07-29T04:01:07;26.50;50.10
44723;DHT22;30451;48.638;10.624;2022-07-29T04:03:33;26.50;50.50
44723;DHT22;30451;48.638;10.624;2022-07-29T04:06:03;26.50;50.40
44723;DHT22;30451;48.638;10.624;2022-07-29T04:08:31;26.40;50.40
44723;DHT22;30451;48.638;10.624;2022-07-29T04:10:57;26.40;50.80
44723;DHT22;30451;48.638;10.624;2022-07-29T04:13:22;26.30;51.40
44723;DHT22;30451;48.638;10.624;2022-07-29T04:15:48;26.20;51.10
44723;DHT22;30451;48.638;10.624;2022-07-29T04:18:13;26.20;51.30
44723;DHT22;30451;48.638;10.624;2022-07-29T04:20:45;26.20;51.40
44723;DHT22;30451;48.638;10.624;2022-07-29T04:23:10;26.10;51.50
44723;DHT22;30451;48.638;10.624;2022-07-29T04:25:36;26.10;51.40
44723;DHT22;30451;48.638;10.624;2022-07-29T04:28:02;26.10;51.80
44723;DHT22;30451;48.638;10.624;2022-07-29T04:30:28;26.10;52.00
44723;DHT22;30451;48.638;10.624;2022-07-29T04:32:54;26.10;52.00
44723;DHT22;30451;48.638;10.624;2022-07-29T04:35:20;26.00;52.00
44723;DHT22;30451;48.638;10.624;2022-07-29T04:37:45;25.90;52.60
44723;DHT22;30451;48.638;10.624;2022-07-29T04:40:11;25.90;52.80
44723;DHT22;30451;48.638;10.624;2022-07-29T04:42:37;25.80;53.50
44723;DHT22;30451;48.638;10.624;2022-07-29T04:45:03;25.70;53.50
44723;DHT22;30451;48.638;10.624;2022-07-29T04:47:28;25.70;53.70
44723;DHT22;30451;48.638;10.624;2022-07-29T04:49:54;25.70;53.20
44723;DHT22;30451;48.638;10.624;2022-07-29T04:52:20;25.70;53.40
44723;DHT22;30451;48.638;10.624;2022-07-29T04:54:45;25.70;53.40
44723;DHT22;30451;48.638;10.624;2022-07-29T04:57:11;25.70;53.50
44723;DHT22;30451;48.638;10.624;2022-07-29T04:59:36;25.70;53.30
44723;DHT22;30451;48.638;10.624;2022-07-29T05:02:02;25.70;53.70
44723;DHT22;30451;48.638;10.624;2022-07-29T05:04:27;25.70;53.60
44723;DHT22;30451;48.638;10.624;2022-07-29T05:06:53;25.70;53.60
44723;DHT22;30451;48.638;10.624;2022-07-29T05:09:18;25.70;54.10
44723;DHT22;30451;48.638;10.624;2022-07-29T05:11:44;25.70;54.00
44723;DHT22;30451;48.638;10.624;2022-07-29T05:14:12;25.60;54.10
44723;DHT22;30451;48.638;10.624;2022-07-29T05:16:38;25.70;54.10
44723;DHT22;30451;48.638;10.624;2022-07-29T05:19:05;25.60;53.80
44723;DHT22;30451;48.638;10.624;2022-07-29T05:21:31;25.70;53.80
44723;DHT22;30451;48.638;10.624;2022-07-29T05:23:56;25.60;54.00
44723;DHT22;30451;48.638;10.624;2022-07-29T05:26:22;25.60;54.50
44723;DHT22;30451;48.638;10.624;2022-07-29T05:28:50;25.60;54.80
44723;DHT22;30451;48.638;10.624;2022-07-29T05:31:22;25.60;54.20
44723;DHT22;30451;48.638;10.624;2022-07-29T05:33:47;25.60;54.50
44723;DHT22;30451;48.638;10.624;2022-07-29T05:36:13;25.60;54.40
44723;DHT22;30451;48.638;10.624;2022-07-29T05:38:38;25.60;54.70
44723;DHT22;30451;48.638;10.624;2022-07-29T05:41:04;25.60;55.20
44723;DHT22;30451;48.638;10.624;2022-07-29T05:43:30;25.50;55.30
44723;DHT22;30451;48.638;10.624;2022-07-29T05:45:55;25.50;55.00
44723;DHT22;30451;48.638;10.624;2022-07-29T05:48:21;25.50;54.90
44723;DHT22;30451;48.638;10.624;2022-07-29T05:50:46;25.50;54.70
44723;DHT22;30451;48.638;10.624;2022-07-29T05:53:12;25.50;55.00
44723;DHT22;30451;48.638;10.624;2022-07-29T05:55:37;25.50;55.40
44723;DHT22;30451;48.638;10.624;2022-07-29T05:58:03;25.40;55.70
44723;DHT22;30451;48.638;10.624;2022-07-29T06:00:28;25.40;55.90
44723;DHT22;30451;48.638;10.624;2022-07-29T06:02:55;25.40;55.80
44723;DHT22;30451;48.638;10.624;2022-07-29T06:05:22;25.30;56.30
44723;DHT22;30451;48.638;10.624;2022-07-29T06:07:47;25.20;56.50
44723;DHT22;30451;48.638;10.624;2022-07-29T06:10:13;25.20;56.30
44723;DHT22;30451;48.638;10.624;2022-07-29T06:12:38;25.10;57.30
44723;DHT22;30451;48.638;10.624;2022-07-29T06:15:04;25.10;56.60
44723;DHT22;30451;48.638;10.624;2022-07-29T06:17:29;25.20;56.10
44723;DHT22;30451;48.638;10.624;2022-07-29T06:19:55;25.20;57.00
44723;DHT22;30451;48.638;10.624;2022-07-29T06:22:23;25.10;57.00
44723;DHT22;30451;48.638;10.624;2022-07-29T06:24:49;25.10;56.70
44723;DHT22;30451;48.638;10.624;2022-07-29T06:27:14;25.10;56.90
44723;DHT22;30451;48.638;10.624;2022-07-29T06:29:40;25.00;56.70
44723;DHT22;30451;48.638;10.624;2022-07-29T06:32:05;25.10;56.70
44723;DHT22;30451;48.638;10.624;2022-07-29T06:34:31;25.10;57.40
44723;DHT22;30451;48.638;10.624;2022-07-29T06:36:59;25.10;56.80
44723;DHT22;30451;48.638;10.624;2022-07-29T06:39:25;25.10;56.60
44723;DHT22;30451;48.638;10.624;2022-07-29T06:42:06;25.20;56.30
44723;DHT22;30451;48.638;10.624;2022-07-29T06:44:32;25.20;55.50
44723;DHT22;30451;48.638;10.624;2022-07-29T06:46:59;25.30;55.10
44723;DHT22;30451;48.638;10.624;2022-07-29T06:49:25;25.30;54.80
44723;DHT22;30451;48.638;10.624;2022-07-29T06:51:52;25.40;54.90
44723;DHT22;30451;48.638;10.624;2022-07-29T06:54:17;25.40;54.50
44723;DHT22;30451;48.638;10.624;2022-07-29T06:56:43;25.40;54.20
44723;DHT22;30451;48.638;10.624;2022-07-29T06:59:09;25.40;54.00
44723;DHT22;30451;48.638;10.624;2022-07-29T07:01:35;25.50;53.90
44723;DHT22;30451;48.638;10.624;2022-07-29T07:04:02;25.60;53.60
44723;DHT22;30451;48.638;10.624;2022-07-29T07:06:27;25.60;53.40
44723;DHT22;30451;48.638;10.624;2022-07-29T07:08:53;25.60;53.20
44723;DHT22;30451;48.638;10.624;2022-07-29T07:11:18;25.70;53.10
44723;DHT22;30451;48.638;10.624;2022-07-29T07:13:44;25.70;52.90
44723;DHT22;30451;48.638;10.624;2022-07-29T07:16:09;25.70;52.70
44723;DHT22;30451;48.638;10.624;2022-07-29T07:18:35;25.80;52.60
44723;DHT22;30451;48.638;10.624;2022-07-29T07:21:00;25.80;52.40
44723;DHT22;30451;48.638;10.624;2022-07-29T07:23:26;25.90;52.40
44723;DHT22;30451;48.638;10.624;2022-07-29T07:25:54;25.90;52.20
44723;DHT22;30451;48.638;10.624;2022-07-29T07:28:20;25.90;52.00
44723;DHT22;30451;48.638;10.624;2022-07-29T07:30:45;26.00;51.90
44723;DHT22;30451;48.638;10.624;2022-07-29T07:33:11;26.00;51.80
44723;DHT22;30451;48.638;10.624;2022-07-29T07:35:36;26.00;51.70
44723;DHT22;30451;48.638;10.624;2022-07-29T07:38:02;26.10;51.60
44723;DHT22;30451;48.638;10.624;2022-07-29T07:40:28;26.10;51.50
44723;DHT22;30451;48.638;10.624;2022-07-29T07:42:53;26.20;51.40
44723;DHT22;30451;48.638;10.624;2022-07-29T07:45:18;26.20;51.30
44723;DHT22;30451;48.638;10.624;2022-07-29T07:47:44;26.20;51.30
44723;DHT22;30451;48.638;10.624;2022-07-29T07:50:10;26.20;51.70
44723;DHT22;30451;48.638;10.624;2022-07-29T07:52:45;26.20;51.10
44723;DHT22;30451;48.638;10.624;2022-07-29T07:55:11;26.20;50.90
44723;DHT22;30451;48.638;10.624;2022-07-29T07:57:36;26.30;50.80
44723;DHT22;30451;48.638;10.624;2022-07-29T08:00:02;26.30;50.70
44723;DHT22;30451;48.638;10.624;2022-07-29T08:02:28;26.30;50.60
44723;DHT22;30451;48.638;10.624;2022-07-29T08:04:54;26.40;50.60
44723;DHT22;30451;48.638;10.624;2022-07-29T08:07:19;26.40;50.60
44723;DHT22;30451;48.638;10.624;2022-07-29T08:09:45;26.40;50.50
44723;DHT22;30451;48.638;10.624;2022-07-29T08:12:11;26.40;50.40
44723;DHT22;30451;48.638;10.624;2022-07-29T08:14:36;26.40;50.40
44723;DHT22;30451;48.638;10.624;2022-07-29T08:17:02;26.50;50.40
44723;DHT22;30451;48.638;10.624;2022-07-29T08:19:27;26.50;50.30
44723;DHT22;30451;48.638;10.624;2022-07-29T08:21:53;26.50;50.20
44723;DHT22;30451;48.638;10.624;2022-07-29T08:24:19;26.50;50.10
44723;DHT22;30451;48.638;10.624;2022-07-29T08:27:03;26.60;50.10
44723;DHT22;30451;48.638;10.624;2022-07-29T08:29:28;26.60;50.00
44723;DHT22;30451;48.638;10.624;2022-07-29T08:31:54;26.60;50.00
44723;DHT22;30451;48.638;10.624;2022-07-29T08:34:19;26.70;50.00
44723;DHT22;30451;48.638;10.624;2022-07-29T08:36:45;26.70;50.00
44723;DHT22;30451;48.638;10.624;2022-07-29T08:39:13;26.70;49.90
44723;DHT22;30451;48.638;10.624;2022-07-29T08:41:39;26.70;49.80
44723;DHT22;30451;48.638;10.624;2022-07-29T08:44:04;26.70;49.70
44723;DHT22;30451;48.638;10.624;2022-07-29T08:46:30;26.80;49.70
44723;DHT22;30451;48.638;10.624;2022-07-29T08:48:55;26.80;50.20
44723;DHT22;30451;48.638;10.624;2022-07-29T08:51:22;26.80;49.60
44723;DHT22;30451;48.638;10.624;2022-07-29T08:53:48;26.80;49.60
44723;DHT22;30451;48.638;10.624;2022-07-29T08:56:20;26.80;49.40
44723;DHT22;30451;48.638;10.624;2022-07-29T08:58:46;26.80;49.50
44723;DHT22;30451;48.638;10.624;2022-07-29T09:01:22;26.90;49.50
44723;DHT22;30451;48.638;10.624;2022-07-29T09:03:48;26.90;49.50
44723;DHT22;30451;48.638;10.624;2022-07-29T09:06:15;26.90;49.40
44723;DHT22;30451;48.638;10.624;2022-07-29T09:08:42;26.90;49.50
44723;DHT22;30451;48.638;10.624;2022-07-29T09:11:07;26.90;49.40
44723;DHT22;30451;48.638;10.624;2022-07-29T09:13:33;27.00;49.40
44723;DHT22;30451;48.638;10.624;2022-07-29T09:15:59;27.00;49.40
44723;DHT22;30451;48.638;10.624;2022-07-29T09:18:34;27.00;49.40
44723;DHT22;30451;48.638;10.624;2022-07-29T09:21:01;27.00;49.40
44723;DHT22;30451;48.638;10.624;2022-07-29T09:26:29;27.00;49.20
44723;DHT22;30451;48.638;10.624;2022-07-29T09:28:56;27.10;49.20
44723;DHT22;30451;48.638;10.624;2022-07-29T09:31:35;27.00;49.10
44723;DHT22;30451;48.638;10.624;2022-07-29T09:34:01;27.00;49.10
44723;DHT22;30451;48.638;10.624;2022-07-29T09:36:26;27.10;49.10
44723;DHT22;30451;48.638;10.624;2022-07-29T09:38:58;27.10;49.50
44723;DHT22;30451;48.638;10.624;2022-07-29T09:41:25;27.10;49.00
44723;DHT22;30451;48.638;10.624;2022-07-29T09:43:54;27.20;49.00
44723;DHT22;30451;48.638;10.624;2022-07-29T09:46:20;27.10;48.90
44723;DHT22;30451;48.638;10.624;2022-07-29T09:48:48;27.20;48.90
44723;DHT22;30451;48.638;10.624;2022-07-29T09:51:31;27.20;48.80
44723;DHT22;30451;48.638;10.624;2022-07-29T09:53:56;27.20;48.80
44723;DHT22;30451;48.638;10.624;2022-07-29T09:56:38;27.20;48.90
44723;DHT22;30451;48.638;10.624;2022-07-29T09:59:07;27.20;49.30
44723;DHT22;30451;48.638;10.624;2022-07-29T10:01:33;27.20;49.10
44723;DHT22;30451;48.638;10.624;2022-07-29T10:03:59;27.20;48.90
44723;DHT22;30451;48.638;10.624;2022-07-29T10:06:25;27.30;48.90
44723;DHT22;30451;48.638;10.624;2022-07-29T10:08:51;27.30;48.80
44723;DHT22;30451;48.638;10.624;2022-07-29T10:11:17;27.30;48.80
44723;DHT22;30451;48.638;10.624;2022-07-29T10:13:44;27.30;48.70
44723;DHT22;30451;48.638;10.624;2022-07-29T10:16:10;27.40;48.70
44723;DHT22;30451;48.638;10.624;2022-07-29T10:18:37;27.40;48.70
44723;DHT22;30451;48.638;10.624;2022-07-29T10:21:03;27.40;48.90
44723;DHT22;30451;48.638;10.624;2022-07-29T10:23:29;27.30;49.10
44723;DHT22;30451;48.638;10.624;2022-07-29T10:25:55;27.30;49.10
44723;DHT22;30451;48.638;10.624;2022-07-29T10:28:21;27.30;49.40
44723;DHT22;30451;48.638;10.624;2022-07-29T10:30:46;27.40;49.50
44723;DHT22;30451;48.638;10.624;2022-07-29T10:35:54;27.50;49.20
44723;DHT22;30451;48.638;10.624;2022-07-29T10:38:29;27.50;49.10
44723;DHT22;30451;48.638;10.624;2022-07-29T10:44:14;27.50;48.60
44723;DHT22;30451;48.638;10.624;2022-07-29T10:46:40;27.50;48.50
44723;DHT22;30451;48.638;10.624;2022-07-29T10:49:13;27.50;48.50
44723;DHT22;30451;48.638;10.624;2022-07-29T10:52:15;27.50;48.50
44723;DHT22;30451;48.638;10.624;2022-07-29T10:57:27;27.60;48.50
44723;DHT22;30451;48.638;10.624;2022-07-29T11:05:09;27.60;48.40
44723;DHT22;30451;48.638;10.624;2022-07-29T11:07:35;27.60;48.30
44723;DHT22;30451;48.638;10.624;2022-07-29T11:15:12;27.60;48.20
44723;DHT22;30451;48.638;10.624;2022-07-29T11:23:20;27.60;48.20
44723;DHT22;30451;48.638;10.624;2022-07-29T11:26:12;27.60;48.20
44723;DHT22;30451;48.638;10.624;2022-07-29T11:28:32;27.60;48.30
44723;DHT22;30451;48.638;10.624;2022-07-29T11:30:59;27.60;48.10
44723;DHT22;30451;48.638;10.624;2022-07-29T11:33:29;27.60;48.20
44723;DHT22;30451;48.638;10.624;2022-07-29T11:38:32;27.70;48.00
44723;DHT22;30451;48.638;10.624;2022-07-29T11:43:48;27.70;47.90
44723;DHT22;30451;48.638;10.624;2022-07-29T11:46:14;27.70;47.90
44723;DHT22;30451;48.638;10.624;2022-07-29T11:48:41;27.70;47.80
44723;DHT22;30451;48.638;10.624;2022-07-29T11:51:10;27.70;47.70
44723;DHT22;30451;48.638;10.624;2022-07-29T11:53:37;27.70;47.70
44723;DHT22;30451;48.638;10.624;2022-07-29T11:56:05;27.80;47.90
44723;DHT22;30451;48.638;10.624;2022-07-29T11:58:32;27.70;47.80
44723;DHT22;30451;48.638;10.624;2022-07-29T12:00:58;27.80;47.90
44723;DHT22;30451;48.638;10.624;2022-07-29T12:03:28;27.80;47.90
44723;DHT22;30451;48.638;10.624;2022-07-29T12:05:54;27.80;48.00
44723;DHT22;30451;48.638;10.624;2022-07-29T12:08:22;27.80;48.00
44723;DHT22;30451;48.638;10.624;2022-07-29T12:10:51;27.70;48.00
44723;DHT22;30451;48.638;10.624;2022-07-29T12:13:18;27.80;48.00
44723;DHT22;30451;48.638;10.624;2022-07-29T12:15:53;27.80;48.00
44723;DHT22;30451;48.638;10.624;2022-07-29T12:18:20;27.70;48.00
44723;DHT22;30451;48.638;10.624;2022-07-29T12:20:46;27.70;48.10
44723;DHT22;30451;48.638;10.624;2022-07-29T12:23:12;27.70;48.10
44723;DHT22;30451;48.638;10.624;2022-07-29T12:25:38;27.70;48.10
44723;DHT22;30451;48.638;10.624;2022-07-29T12:28:05;27.70;48.30
44723;DHT22;30451;48.638;10.624;2022-07-29T12:33:00;27.70;48.60
44723;DHT22;30451;48.638;10.624;2022-07-29T12:35:26;27.70;48.60
44723;DHT22;30451;48.638;10.624;2022-07-29T12:37:54;27.70;48.60
44723;DHT22;30451;48.638;10.624;2022-07-29T12:40:20;27.70;48.60
44723;DHT22;30451;48.638;10.624;2022-07-29T12:43:05;27.70;48.50
44723;DHT22;30451;48.638;10.624;2022-07-29T12:45:31;27.70;48.50
44723;DHT22;30451;48.638;10.624;2022-07-29T12:47:56;27.70;48.50
44723;DHT22;30451;48.638;10.624;2022-07-29T12:50:22;27.70;48.50
44723;DHT22;30451;48.638;10.624;2022-07-29T12:52:47;27.60;48.50
44723;DHT22;30451;48.638;10.624;2022-07-29T12:55:13;27.60;48.40
44723;DHT22;30451;48.638;10.624;2022-07-29T13:00:12;27.60;48.60
44723;DHT22;30451;48.638;10.624;2022-07-29T13:02:39;27.60;48.60
44723;DHT22;30451;48.638;10.624;2022-07-29T13:05:06;27.60;48.60
44723;DHT22;30451;48.638;10.624;2022-07-29T13:07:34;27.50;48.60
44723;DHT22;30451;48.638;10.624;2022-07-29T13:10:17;27.50;48.70
44723;DHT22;30451;48.638;10.624;2022-07-29T13:15:27;27.60;48.90
44723;DHT22;30451;48.638;10.624;2022-07-29T13:17:53;27.50;48.80
44723;DHT22;30451;48.638;10.624;2022-07-29T13:20:18;27.50;48.80
44723;DHT22;30451;48.638;10.624;2022-07-29T13:22:50;27.50;49.00
44723;DHT22;30451;48.638;10.624;2022-07-29T13:25:22;27.50;48.90
44723;DHT22;30451;48.638;10.624;2022-07-29T13:27:51;27.50;49.00
44723;DHT22;30451;48.638;10.624;2022-07-29T13:30:19;27.50;49.00
44723;DHT22;30451;48.638;10.624;2022-07-29T13:32:45;27.50;49.00
44723;DHT22;30451;48.638;10.624;2022-07-29T13:35:11;27.50;49.00
44723;DHT22;30451;48.638;10.624;2022-07-29T13:37:37;27.40;49.00
44723;DHT22;30451;48.638;10.624;2022-07-29T13:40:11;27.40;49.00
44723;DHT22;30451;48.638;10.624;2022-07-29T13:42:37;27.40;48.90
44723;DHT22;30451;48.638;10.624;2022-07-29T13:45:03;27.40;48.90
44723;DHT22;30451;48.638;10.624;2022-07-29T13:47:29;27.40;49.00
44723;DHT22;30451;48.638;10.624;2022-07-29T13:49:55;27.40;49.00
44723;DHT22;30451;48.638;10.624;2022-07-29T13:52:20;27.40;49.00
44723;DHT22;30451;48.638;10.624;2022-07-29T13:54:46;27.40;49.00
44723;DHT22;30451;48.638;10.624;2022-07-29T13:57:12;27.40;49.00
44723;DHT22;30451;48.638;10.624;2022-07-29T13:59:38;27.30;48.90
44723;DHT22;30451;48.638;10.624;2022-07-29T14:02:04;27.30;48.90
44723;DHT22;30451;48.638;10.624;2022-07-29T14:04:30;27.30;48.90
44723;DHT22;30451;48.638;10.624;2022-07-29T14:06:56;27.30;48.90
44723;DHT22;30451;48.638;10.624;2022-07-29T14:09:21;27.30;48.90
44723;DHT22;30451;48.638;10.624;2022-07-29T14:11:47;27.40;48.80
44723;DHT22;30451;48.638;10.624;2022-07-29T14:14:14;27.30;48.70
44723;DHT22;30451;48.638;10.624;2022-07-29T14:16:40;27.30;48.70
44723;DHT22;30451;48.638;10.624;2022-07-29T14:19:06;27.40;48.70
44723;DHT22;30451;48.638;10.624;2022-07-29T14:21:31;27.30;48.60
44723;DHT22;30451;48.638;10.624;2022-07-29T14:23:57;27.30;48.60
44723;DHT22;30451;48.638;10.624;2022-07-29T14:26:22;27.30;48.70
44723;DHT22;30451;48.638;10.624;2022-07-29T14:28:48;27.30;48.60
44723;DHT22;30451;48.638;10.624;2022-07-29T14:31:14;27.30;48.50
44723;DHT22;30451;48.638;10.624;2022-07-29T14:33:40;27.30;48.60
44723;DHT22;30451;48.638;10.624;2022-07-29T14:36:06;27.30;48.60
44723;DHT22;30451;48.638;10.624;2022-07-29T14:38:31;27.30;48.40
44723;DHT22;30451;48.638;10.624;2022-07-29T14:40:57;27.20;47.70
44723;DHT22;30451;48.638;10.624;2022-07-29T14:43:22;27.20;47.50
44723;DHT22;30451;48.638;10.624;2022-07-29T14:45:48;27.20;47.30
44723;DHT22;30451;48.638;10.624;2022-07-29T14:48:13;27.20;47.10
44723;DHT22;30451;48.638;10.624;2022-07-29T14:50:39;27.10;47.10
44723;DHT22;30451;48.638;10.624;2022-07-29T14:53:05;27.10;47.10
44723;DHT22;30451;48.638;10.624;2022-07-29T14:55:31;27.10;47.40
44723;DHT22;30451;48.638;10.624;2022-07-29T14:57:56;27.10;47.50
44723;DHT22;30451;48.638;10.624;2022-07-29T15:00:22;27.10;47.50
44723;DHT22;30451;48.638;10.624;2022-07-29T15:02:47;27.10;47.60
44723;DHT22;30451;48.638;10.624;2022-07-29T15:05:13;27.10;47.70
44723;DHT22;30451;48.638;10.624;2022-07-29T15:07:39;27.10;47.70
44723;DHT22;30451;48.638;10.624;2022-07-29T15:10:04;27.10;47.80
44723;DHT22;30451;48.638;10.624;2022-07-29T15:12:30;27.10;47.80
44723;DHT22;30451;48.638;10.624;2022-07-29T15:14:56;27.10;47.90
44723;DHT22;30451;48.638;10.624;2022-07-29T15:17:22;27.10;48.00
44723;DHT22;30451;48.638;10.624;2022-07-29T15:19:47;27.10;48.00
44723;DHT22;30451;48.638;10.624;2022-07-29T15:22:12;27.10;48.00
44723;DHT22;30451;48.638;10.624;2022-07-29T15:24:38;27.10;48.10
44723;DHT22;30451;48.638;10.624;2022-07-29T15:27:04;27.10;48.00
44723;DHT22;30451;48.638;10.624;2022-07-29T15:29:29;27.10;48.10
44723;DHT22;30451;48.638;10.624;2022-07-29T15:31:55;27.10;48.20
44723;DHT22;30451;48.638;10.624;2022-07-29T15:34:20;27.10;48.20
44723;DHT22;30451;48.638;10.624;2022-07-29T15:36:46;27.10;48.20
44723;DHT22;30451;48.638;10.624;2022-07-29T15:39:11;27.00;48.20
44723;DHT22;30451;48.638;10.624;2022-07-29T15:41:37;27.10;48.30
44723;DHT22;30451;48.638;10.624;2022-07-29T15:44:02;27.10;48.80
44723;DHT22;30451;48.638;10.624;2022-07-29T15:46:28;27.10;48.00
44723;DHT22;30451;48.638;10.624;2022-07-29T15:49:12;27.10;48.50
44723;DHT22;30451;48.638;10.624;2022-07-29T15:51:38;27.10;48.50
44723;DHT22;30451;48.638;10.624;2022-07-29T15:54:03;27.10;48.60
44723;DHT22;30451;48.638;10.624;2022-07-29T15:56:29;27.00;48.50
44723;DHT22;30451;48.638;10.624;2022-07-29T15:58:55;27.00;48.60
44723;DHT22;30451;48.638;10.624;2022-07-29T16:01:21;27.10;48.60
44723;DHT22;30451;48.638;10.624;2022-07-29T16:03:46;27.10;48.70
44723;DHT22;30451;48.638;10.624;2022-07-29T16:06:12;27.10;48.70